Time;durP1;ratioP1;P1;durP2;ratioP2;P2;SDS_P1;SDS_P2;PMS_P1;PMS_P2;Temp;Humidity;BMP_temperature;BMP_pressure;BME280_temperature;BME280_humidity;BME280_pressure;Samples;Min_cycle;Max_cycle;Signal;HPM_P1;HPM_P2
2024/03/04 00:01:49;;;;;;;19.13;12.97;;;8.50;87.40;;;10.13;60.82;96306.13;5026674;28;20439;-44
2024/03/04 00:04:16;;;;;;;19.40;12.40;;;8.60;87.20;;;9.94;61.63;96304.91;5012064;28;20043;-46
2024/03/04 00:06:44;;;;;;;17.20;11.30;;;8.50;88.10;;;9.95;61.84;96311.91;5015870;28;20422;-44
2024/03/04 00:09:12;;;;;;;16.27;11.47;;;8.50;88.70;;;9.97;61.47;96313.34;5028853;28;20510;-45
2024/03/04 00:11:39;;;;;;;16.60;11.70;;;8.50;88.50;;;10.00;61.26;96315.63;5027010;28;20079;-44
2024/03/04 00:14:07;;;;;;;14.83;11.40;;;8.50;88.60;;;9.92;61.69;96323.72;5011820;28;20035;-43
2024/03/04 00:16:35;;;;;;;17.70;11.17;;;8.50;89.00;;;9.85;61.87;96323.66;5010617;28;20491;-43
2024/03/04 00:19:03;;;;;;;16.50;10.93;;;8.40;89.70;;;9.81;62.41;96330.38;5011068;28;20121;-46
2024/03/04 00:21:31;;;;;;;17.40;10.90;;;8.40;90.40;;;9.82;62.34;96337.31;5011221;28;20399;-44
2024/03/04 00:23:58;;;;;;;18.23;11.27;;;8.40;90.60;;;9.70;62.91;96335.34;5026153;28;20052;-45
2024/03/04 00:26:26;;;;;;;15.43;10.13;;;8.30;91.50;;;9.68;63.43;96337.38;5027671;28;20051;-45
2024/03/04 00:28:54;;;;;;;16.77;11.23;;;8.30;91.50;;;9.57;63.87;96341.31;5017514;28;20045;-47
2024/03/04 00:31:21;;;;;;;13.87;10.07;;;8.30;92.30;;;9.65;63.51;96342.06;5011613;28;20046;-44
2024/03/04 00:33:49;;;;;;;15.07;10.33;;;8.30;91.80;;;9.75;63.06;96347.06;5018588;28;20050;-44
2024/03/04 00:36:22;;;;;;;16.40;10.30;;;8.30;91.70;;;9.83;62.65;96348.78;5028991;28;20032;-44
2024/03/04 00:38:54;;;;;;;15.80;10.67;;;8.40;91.30;;;9.72;63.54;96344.78;5021257;28;20059;-44
2024/03/04 00:41:25;;;;;;;17.67;11.67;;;8.30;91.70;;;9.75;63.46;96348.88;5011347;28;20050;-44
2024/03/04 00:43:54;;;;;;;12.10;9.00;;;8.40;91.90;;;9.87;62.93;96350.06;5020452;28;20438;-45
2024/03/04 00:46:23;;;;;;;14.27;10.60;;;8.40;91.40;;;9.64;63.78;96352.88;5027598;28;20297;-44
2024/03/04 00:48:50;;;;;;;17.07;11.30;;;8.30;91.90;;;9.71;63.30;96353.75;5020807;28;20419;-45
2024/03/04 00:51:18;;;;;;;12.17;9.17;;;8.30;92.20;;;9.75;63.09;96354.19;5011345;28;20043;-45
2024/03/04 00:53:46;;;;;;;13.00;10.03;;;8.30;92.50;;;9.60;63.99;96357.72;5014588;28;20046;-47
2024/03/04 00:56:14;;;;;;;12.90;9.70;;;8.30;92.80;;;9.64;63.85;96359.00;5028679;28;20076;-45
2024/03/04 00:58:42;;;;;;;13.97;10.40;;;8.20;92.80;;;9.69;63.32;96362.91;5027329;28;20071;-47
2024/03/04 01:01:10;;;;;;;13.70;9.57;;;8.20;92.70;;;9.61;63.75;96363.84;5011130;28;20046;-49
2024/03/04 01:03:37;;;;;;;12.87;9.47;;;8.20;93.10;;;9.59;63.86;96369.34;5011301;28;20039;-47
2024/03/04 01:06:05;;;;;;;12.60;9.53;;;8.10;93.60;;;9.48;64.53;96366.34;5027541;28;20041;-49
2024/03/04 01:08:33;;;;;;;11.93;9.00;;;8.10;94.40;;;9.60;64.14;96367.53;5028125;28;20047;-46
2024/03/04 01:11:01;;;;;;;11.87;9.33;;;8.10;93.80;;;9.61;63.89;96377.13;5014723;28;20044;-46
2024/03/04 01:13:31;;;;;;;12.90;9.57;;;8.10;93.50;;;9.68;63.64;96386.03;5043840;28;20131;-47
2024/03/04 01:15:58;;;;;;;14.20;10.10;;;8.20;93.50;;;9.64;63.86;96374.94;5015308;28;20055;-48
2024/03/04 01:18:26;;;;;;;12.63;9.00;;;8.10;93.90;;;9.71;63.37;96379.50;5011105;28;20043;-45
2024/03/04 01:20:54;;;;;;;11.93;8.47;;;8.20;93.70;;;9.67;63.55;96384.34;5019019;28;20047;-47
2024/03/04 01:23:23;;;;;;;11.73;8.40;;;8.10;93.50;;;9.61;63.54;96393.91;5028094;28;20048;-45
2024/03/04 01:25:51;;;;;;;12.87;9.50;;;8.10;93.40;;;9.63;63.84;96389.25;5022683;28;20045;-45
2024/03/04 01:28:21;;;;;;;13.80;9.03;;;8.10;94.00;;;9.62;63.92;96392.09;5035119;28;20055;-49
2024/03/04 01:30:55;;;;;;;12.07;9.50;;;8.10;93.90;;;9.48;64.50;96400.88;5024809;28;20047;-45
2024/03/04 01:33:23;;;;;;;16.33;10.27;;;8.00;94.60;;;9.59;63.60;96403.88;5013956;28;20498;-47
2024/03/04 01:35:50;;;;;;;13.83;10.57;;;8.00;95.30;;;9.45;64.48;96402.91;5018644;28;20043;-44
2024/03/04 01:38:19;;;;;;;12.33;8.93;;;7.90;95.70;;;9.20;65.36;96415.63;5031111;28;20041;-47
2024/03/04 01:40:48;;;;;;;11.27;9.23;;;7.90;96.10;;;9.31;64.98;96410.91;5027822;28;20059;-46
2024/03/04 01:43:15;;;;;;;14.57;9.70;;;7.90;96.40;;;9.30;65.11;96417.19;5036001;28;20040;-45
2024/03/04 01:45:43;;;;;;;16.60;10.20;;;7.90;97.40;;;9.31;65.03;96419.69;5031729;28;20048;-46
2024/03/04 01:48:11;;;;;;;15.50;10.03;;;7.90;96.60;;;9.30;65.16;96419.84;5013693;28;20520;-45
2024/03/04 01:50:41;;;;;;;16.87;10.57;;;7.90;96.30;;;9.18;65.40;96436.22;5012914;28;20054;-45
2024/03/04 01:53:11;;;;;;;14.70;10.63;;;7.80;97.10;;;9.18;65.73;96443.38;5029073;28;20040;-45
2024/03/04 01:55:48;;;;;;;17.27;11.67;;;7.80;97.80;;;9.12;65.82;96444.94;5030377;28;20499;-45
2024/03/04 01:58:18;;;;;;;14.30;10.00;;;7.80;97.10;;;9.07;66.21;96455.25;5005563;28;20062;-47
2024/03/04 02:00:48;;;;;;;17.07;10.83;;;7.80;97.60;;;9.04;66.52;96458.28;5014117;28;20047;-47
2024/03/04 02:03:18;;;;;;;16.37;11.20;;;7.70;97.90;;;9.16;65.99;96464.81;5006604;28;20042;-46
2024/03/04 02:05:47;;;;;;;16.00;11.40;;;7.80;97.90;;;9.13;66.10;96457.22;5014188;28;20053;-46
2024/03/04 02:08:17;;;;;;;17.13;12.00;;;7.80;97.60;;;9.16;66.01;96466.63;5006018;28;20402;-48
2024/03/04 02:10:48;;;;;;;18.87;11.10;;;7.80;97.80;;;9.24;65.43;96471.88;5013760;28;20054;-47
2024/03/04 02:13:16;;;;;;;16.80;11.23;;;7.80;97.30;;;9.06;66.39;96474.88;5004931;28;20039;-45
2024/03/04 02:15:44;;;;;;;18.10;12.20;;;7.70;98.00;;;9.12;66.11;96470.66;5012602;28;20050;-46
2024/03/04 02:18:12;;;;;;;18.30;11.73;;;7.70;98.30;;;9.25;65.91;96481.50;5029694;28;20051;-49
2024/03/04 02:20:45;;;;;;;19.47;12.97;;;7.80;97.90;;;9.14;66.09;96473.97;5031312;28;20052;-47
2024/03/04 02:23:13;;;;;;;18.73;12.90;;;7.80;98.60;;;9.30;65.78;96472.97;4971056;28;20661;-46
2024/03/04 02:25:55;;;;;;;18.23;12.83;;;7.90;98.10;;;9.10;66.69;96489.41;5030798;28;20052;-45
2024/03/04 02:28:25;;;;;;;19.33;12.03;;;7.70;97.60;;;9.17;66.19;96479.75;5006681;28;20039;-48
2024/03/04 02:30:55;;;;;;;20.97;13.40;;;7.80;98.60;;;9.14;66.23;96482.75;5015664;28;20502;-45
2024/03/04 02:33:25;;;;;;;22.07;13.30;;;7.80;97.40;;;9.19;66.13;96477.72;5030633;28;20059;-45
2024/03/04 02:35:53;;;;;;;21.97;14.33;;;7.80;98.00;;;9.25;65.95;96481.50;5027273;28;20047;-46
2024/03/04 02:38:21;;;;;;;22.63;15.07;;;7.80;98.00;;;9.10;66.67;96481.47;5013045;28;20051;-45
2024/03/04 02:40:49;;;;;;;24.43;14.13;;;7.80;98.00;;;9.12;66.72;96478.63;5013291;28;20422;-49
2024/03/04 02:43:17;;;;;;;22.47;13.80;;;7.80;97.90;;;9.15;66.41;96479.09;5012328;28;20054;-45
2024/03/04 02:45:45;;;;;;;23.13;15.27;;;7.90;98.20;;;9.08;66.93;96483.47;5013330;28;20055;-48
2024/03/04 02:48:13;;;;;;;24.70;15.63;;;7.80;98.30;;;8.96;67.24;96492.88;5027673;28;20052;-46
2024/03/04 02:50:41;;;;;;;20.27;13.37;;;7.80;99.30;;;8.98;67.33;96496.19;5030512;28;20048;-47
2024/03/04 02:53:09;;;;;;;24.80;15.37;;;7.80;99.10;;;9.05;67.07;96508.56;5018891;28;20051;-46
2024/03/04 02:55:37;;;;;;;23.90;14.80;;;7.80;99.20;;;8.95;67.50;96507.97;5012889;28;20039;-46
2024/03/04 02:58:08;;;;;;;25.37;14.63;;;7.80;99.40;;;8.82;67.90;96518.34;5022010;28;20505;-46
2024/03/04 03:00:36;;;;;;;22.70;15.40;;;7.70;99.90;;;9.06;67.38;96517.34;5030401;28;20048;-46
2024/03/04 03:03:04;;;;;;;25.03;14.60;;;7.80;99.90;;;9.19;66.82;96522.88;5022535;28;20045;-47
2024/03/04 03:05:32;;;;;;;24.57;14.27;;;7.90;99.30;;;9.29;66.77;96524.44;5012841;28;20050;-46
2024/03/04 03:07:59;;;;;;;25.30;15.03;;;7.90;98.80;;;9.30;66.83;96532.22;5017160;28;20050;-46
2024/03/04 03:10:28;;;;;;;25.63;15.63;;;7.90;97.70;;;9.16;66.95;96528.53;5028540;28;20079;-48
2024/03/04 03:12:56;;;;;;;24.03;15.50;;;7.80;99.10;;;9.16;67.18;96525.06;5028168;28;20487;-46
2024/03/04 03:15:24;;;;;;;23.80;14.40;;;7.80;98.60;;;9.05;67.68;96537.75;5012824;28;20053;-48
2024/03/04 03:17:52;;;;;;;26.17;15.53;;;7.80;99.00;;;8.92;67.74;96529.56;5012721;28;20074;-47
2024/03/04 03:20:20;;;;;;;25.90;17.03;;;7.70;99.90;;;9.05;67.44;96536.91;5003153;28;20038;-46
2024/03/04 03:22:48;;;;;;;26.07;15.27;;;7.80;99.90;;;9.04;67.58;96543.25;5012727;28;20054;-47
2024/03/04 03:25:16;;;;;;;26.60;16.30;;;7.80;98.80;;;9.01;67.48;96536.44;5027587;28;20051;-49
2024/03/04 03:27:45;;;;;;;26.33;16.73;;;7.80;99.60;;;9.08;67.09;96541.88;5029980;28;20041;-47
2024/03/04 03:30:12;;;;;;;24.77;14.07;;;7.80;99.00;;;9.05;67.60;96560.81;5017652;28;20055;-47
2024/03/04 03:32:40;;;;;;;23.73;15.63;;;7.80;98.60;;;8.92;67.84;96556.13;5012407;28;20050;-49
2024/03/04 03:35:08;;;;;;;30.80;16.37;;;7.70;99.80;;;8.99;67.63;96558.88;5019409;28;20047;-47
2024/03/04 03:37:36;;;;;;;28.30;14.70;;;7.80;98.90;;;8.86;68.03;96562.94;5029738;28;20041;-48
2024/03/04 03:40:05;;;;;;;28.10;15.10;;;7.70;99.90;;;8.79;68.49;96577.91;5023657;28;20096;-46
2024/03/04 03:42:33;;;;;;;26.90;14.93;;;7.70;99.90;;;8.87;68.22;96563.78;5011813;28;20414;-46
2024/03/04 03:45:01;;;;;;;26.53;15.53;;;7.70;99.80;;;9.05;67.64;96568.78;5014420;28;20058;-50
2024/03/04 03:47:29;;;;;;;28.10;17.47;;;7.70;99.90;;;8.94;68.10;96571.88;5029541;28;20187;-47
2024/03/04 03:49:58;;;;;;;24.90;15.13;;;7.70;99.50;;;8.79;68.50;96566.50;5028531;28;20051;-46
2024/03/04 03:52:25;;;;;;;29.87;16.03;;;7.70;99.90;;;8.80;68.45;96573.44;5012187;28;20521;-46
2024/03/04 03:54:53;;;;;;;29.47;17.70;;;7.60;99.90;;;8.75;68.76;96584.59;5011665;28;20042;-48
2024/03/04 03:57:21;;;;;;;31.57;17.83;;;7.60;99.90;;;8.72;68.74;96584.09;5028276;28;20044;-46
2024/03/04 03:59:48;;;;;;;31.70;17.57;;;7.60;99.90;;;8.81;68.56;96596.34;5029304;28;20411;-49
2024/03/04 04:02:16;;;;;;;28.20;17.63;;;7.70;99.90;;;8.92;68.21;96597.75;5017209;28;20052;-47
2024/03/04 04:04:45;;;;;;;32.07;18.53;;;7.70;99.90;;;8.91;68.22;96607.53;5012394;28;20058;-48
2024/03/04 04:07:13;;;;;;;30.47;17.83;;;7.70;99.90;;;9.00;68.05;96611.78;5021606;28;20062;-45
2024/03/04 04:09:40;;;;;;;32.23;18.40;;;7.70;99.90;;;9.04;67.84;96609.63;5029252;28;20040;-46
2024/03/04 04:12:09;;;;;;;32.07;18.13;;;7.70;99.90;;;8.99;68.46;96622.59;4980175;28;20050;-47
2024/03/04 04:14:37;;;;;;;32.20;20.23;;;7.70;99.90;;;8.96;68.37;96628.25;4994462;28;20056;-48
2024/03/04 04:17:04;;;;;;;27.83;17.20;;;7.70;99.90;;;9.02;68.30;96625.72;5025517;28;20040;-46
2024/03/04 04:19:34;;;;;;;31.17;18.80;;;7.70;99.90;;;9.03;68.29;96629.19;5009829;28;20047;-48
2024/03/04 04:22:02;;;;;;;31.77;18.83;;;7.80;99.90;;;9.14;67.75;96636.75;5012535;28;20046;-49
2024/03/04 04:24:29;;;;;;;34.67;19.33;;;7.80;99.90;;;9.26;67.56;96648.59;5029169;28;20052;-48
2024/03/04 04:26:57;;;;;;;33.53;18.27;;;8.00;99.90;;;9.10;67.92;96646.06;5029351;28;20049;-47
2024/03/04 04:29:25;;;;;;;33.40;19.43;;;7.90;99.60;;;9.13;67.64;96651.06;5043986;28;20043;-47
2024/03/04 04:31:53;;;;;;;34.60;21.30;;;7.90;99.90;;;9.16;67.70;96653.34;5011440;28;20051;-48
2024/03/04 04:34:20;;;;;;;35.43;19.43;;;7.80;99.90;;;9.10;67.71;96654.03;5024769;28;20039;-49
2024/03/04 04:36:49;;;;;;;35.63;20.47;;;7.80;99.90;;;9.12;67.58;96662.66;5028843;28;20407;-47
2024/03/04 04:39:17;;;;;;;34.23;18.83;;;7.80;99.90;;;9.12;67.90;96669.81;5017419;28;20415;-46
2024/03/04 04:41:45;;;;;;;36.43;22.40;;;7.80;99.90;;;9.16;67.50;96668.44;5009062;28;20078;-49
2024/03/04 04:44:12;;;;;;;31.97;18.03;;;7.80;99.90;;;9.11;67.82;96676.09;5018772;28;20054;-45
2024/03/04 04:46:40;;;;;;;35.93;19.33;;;7.80;99.90;;;9.00;68.22;96680.00;5028744;28;20502;-46
2024/03/04 04:49:08;;;;;;;36.80;21.93;;;7.70;99.90;;;8.88;68.50;96676.91;5028375;28;20368;-46
2024/03/04 04:51:36;;;;;;;35.13;20.53;;;7.60;99.90;;;8.88;68.75;96682.22;5028960;28;20040;-46
2024/03/04 04:54:03;;;;;;;43.13;21.17;;;7.60;99.90;;;8.95;68.34;96680.50;5028039;28;20045;-46
2024/03/04 04:56:31;;;;;;;37.27;21.33;;;7.70;99.90;;;9.01;68.26;96692.25;5011373;28;20046;-46
2024/03/04 04:58:58;;;;;;;37.87;21.33;;;7.70;99.90;;;8.99;68.29;96695.06;5010954;28;20082;-46
2024/03/04 05:01:27;;;;;;;41.37;22.33;;;7.70;99.90;;;8.85;68.81;96690.53;5053386;28;20046;-46
2024/03/04 05:03:55;;;;;;;38.53;20.47;;;7.60;99.90;;;9.03;68.17;96703.53;5011121;28;20498;-45
2024/03/04 05:06:43;;;;;;;35.13;19.60;;;7.60;99.90;;;9.01;68.33;96703.69;5024407;28;20054;-44
2024/03/04 05:09:11;;;;;;;41.60;23.13;;;7.70;99.90;;;9.02;68.27;96715.16;5018775;28;20047;-47
2024/03/04 05:11:39;;;;;;;41.17;21.50;;;7.70;99.90;;;9.04;68.17;96721.94;5031943;28;20040;-46
2024/03/04 05:14:09;;;;;;;40.23;21.03;;;7.70;99.90;;;9.06;68.07;96719.13;5031104;28;20057;-45
2024/03/04 05:16:36;;;;;;;40.70;23.93;;;7.70;99.90;;;9.07;68.05;96729.56;5013438;28;20060;-47
2024/03/04 05:19:04;;;;;;;39.33;21.80;;;7.70;99.90;;;9.20;67.83;96730.81;5014303;28;20043;-51
2024/03/04 05:21:31;;;;;;;37.00;21.27;;;7.80;99.90;;;9.18;67.74;96730.19;5013269;28;20050;-45
2024/03/04 05:23:59;;;;;;;37.13;20.13;;;7.70;99.90;;;9.19;67.82;96737.97;5013062;28;20430;-44
2024/03/04 05:26:27;;;;;;;35.60;21.50;;;7.80;99.90;;;9.07;68.04;96742.00;5028951;28;20044;-46
2024/03/04 05:28:55;;;;;;;35.47;19.83;;;7.70;99.90;;;9.23;67.39;96741.94;5031548;28;20052;-45
2024/03/04 05:31:23;;;;;;;40.03;21.63;;;7.80;99.90;;;9.27;67.57;96745.88;5020677;28;20040;-45
2024/03/04 05:33:51;;;;;;;37.97;21.83;;;7.80;99.90;;;9.33;67.20;96757.66;5013064;28;20043;-46
2024/03/04 05:36:19;;;;;;;39.27;22.00;;;7.90;99.90;;;9.22;67.42;96752.72;5022416;28;20047;-49
2024/03/04 05:38:46;;;;;;;39.83;21.17;;;7.80;99.90;;;9.28;67.58;96754.69;5031872;28;20040;-46
2024/03/04 05:41:14;;;;;;;39.77;21.17;;;7.80;99.90;;;9.31;67.50;96758.84;5025051;28;20060;-46
2024/03/04 05:43:42;;;;;;;39.37;21.83;;;7.80;99.90;;;9.25;67.32;96765.66;5012312;28;20510;-47
2024/03/04 05:46:09;;;;;;;37.50;21.50;;;7.80;99.90;;;9.18;67.69;96770.00;5015116;28;20498;-48
2024/03/04 05:48:37;;;;;;;40.67;22.23;;;7.80;99.90;;;9.31;67.30;96769.44;5031305;28;20045;-49
2024/03/04 05:51:05;;;;;;;38.87;21.67;;;7.80;99.90;;;9.33;67.38;96776.25;5031323;28;20048;-46
2024/03/04 05:53:33;;;;;;;42.67;23.03;;;7.90;99.90;;;9.30;67.33;96781.06;5014397;28;20042;-46
2024/03/04 05:56:04;;;;;;;40.67;22.73;;;7.80;99.90;;;9.38;67.17;96781.00;5014714;28;20430;-49
2024/03/04 05:58:32;;;;;;;36.43;21.23;;;7.90;99.90;;;9.31;67.47;96775.59;5028272;28;20041;-46
2024/03/04 06:01:00;;;;;;;40.47;21.87;;;7.90;99.90;;;9.27;67.40;96787.56;5031482;28;20055;-45
2024/03/04 06:03:28;;;;;;;41.77;23.97;;;7.80;99.90;;;9.25;67.26;96789.56;5018386;28;20051;-44
2024/03/04 06:05:56;;;;;;;42.47;22.67;;;7.80;99.90;;;9.22;67.66;96790.72;5013609;28;20417;-47
2024/03/04 06:08:23;;;;;;;40.83;22.67;;;7.70;99.90;;;9.37;67.31;96793.47;5023081;28;20046;-46
2024/03/04 06:10:51;;;;;;;43.93;24.17;;;7.80;99.90;;;9.43;67.18;96795.44;5030806;28;20040;-47
2024/03/04 06:13:18;;;;;;;39.40;21.13;;;7.90;99.90;;;9.31;67.26;96793.38;5025275;28;20051;-47
2024/03/04 06:15:46;;;;;;;41.90;23.50;;;7.80;99.90;;;9.37;67.02;96797.97;5013534;28;20061;-46
2024/03/04 06:18:14;;;;;;;37.37;22.17;;;7.80;99.90;;;9.30;67.24;96800.47;5037252;28;20468;-45
2024/03/04 06:20:41;;;;;;;43.23;22.83;;;7.80;99.90;;;9.20;67.55;96803.34;5013579;28;20043;-46
2024/03/04 06:23:09;;;;;;;39.30;22.03;;;7.80;99.90;;;9.33;67.27;96807.28;5013180;28;20457;-46
2024/03/04 06:25:37;;;;;;;46.67;24.03;;;7.80;99.90;;;9.38;66.83;96807.56;5030742;28;20040;-47
2024/03/04 06:28:05;;;;;;;42.47;24.23;;;7.90;99.90;;;9.31;67.38;96803.97;5030760;28;20048;-47
2024/03/04 06:30:32;;;;;;;41.30;22.47;;;7.80;99.90;;;9.34;67.36;96819.56;5014767;28;20065;-46
2024/03/04 06:33:00;;;;;;;43.17;24.33;;;7.80;99.90;;;9.30;67.53;96821.72;5012975;28;20047;-46
2024/03/04 06:35:28;;;;;;;49.57;23.17;;;7.80;99.90;;;9.26;67.83;96820.41;5023804;28;20054;-46
2024/03/04 06:37:55;;;;;;;44.80;23.97;;;7.80;99.90;;;9.30;67.42;96821.72;5030592;28;20048;-47
2024/03/04 06:40:24;;;;;;;44.67;23.40;;;7.80;99.90;;;9.27;67.45;96817.59;5023054;28;20491;-47
2024/03/04 06:42:52;;;;;;;48.13;23.90;;;7.80;99.90;;;9.29;67.64;96822.75;5013027;28;20047;-47
2024/03/04 06:45:21;;;;;;;49.23;24.03;;;7.80;99.90;;;9.39;67.16;96836.63;5016691;28;20050;-47
2024/03/04 06:47:53;;;;;;;38.88;21.10;;;7.80;99.90;;;9.24;67.60;96839.19;5030522;28;20052;-46
2024/03/04 06:50:20;;;;;;;43.20;24.33;;;7.80;99.90;;;9.39;67.31;96831.31;5025096;28;20044;-47
2024/03/04 06:52:48;;;;;;;47.07;24.93;;;7.80;99.90;;;9.34;67.45;96844.28;5012782;28;20055;-45
2024/03/04 06:55:16;;;;;;;42.87;23.77;;;7.80;99.90;;;9.39;67.48;96841.13;5013471;28;20047;-45
2024/03/04 06:57:43;;;;;;;48.10;26.03;;;7.90;99.90;;;9.31;67.39;96838.50;5030325;28;20044;-47
2024/03/04 07:00:12;;;;;;;49.20;26.70;;;7.80;99.90;;;9.28;67.52;96847.63;5029781;28;20053;-44
2024/03/04 07:02:40;;;;;;;43.33;23.67;;;7.80;99.90;;;9.21;67.87;96854.66;5013050;28;20426;-47
2024/03/04 07:05:08;;;;;;;50.37;26.57;;;7.70;99.90;;;9.31;67.74;96855.28;5012863;28;20061;-46
2024/03/04 07:07:35;;;;;;;47.93;24.83;;;7.80;99.90;;;9.36;67.69;96855.56;5026478;28;20054;-48
2024/03/04 07:10:04;;;;;;;43.53;22.03;;;7.90;99.90;;;9.36;67.75;96866.19;5029979;28;20091;-45
2024/03/04 07:12:33;;;;;;;46.43;25.80;;;7.90;99.90;;;9.48;67.31;96866.66;5019049;28;20048;-46
2024/03/04 07:15:01;;;;;;;46.93;23.77;;;8.00;99.90;;;9.35;67.43;96869.03;5012619;28;20043;-46
2024/03/04 07:17:28;;;;;;;47.40;24.10;;;7.90;99.90;;;9.37;67.36;96870.50;5020458;28;20039;-46
2024/03/04 07:19:56;;;;;;;49.47;25.23;;;7.90;99.90;;;9.30;67.96;96869.53;5027064;28;20062;-47
2024/03/04 07:22:24;;;;;;;53.57;26.30;;;7.80;99.90;;;9.36;67.98;96874.16;5025454;28;20041;-45
2024/03/04 07:24:51;;;;;;;47.47;24.40;;;7.80;99.90;;;9.27;68.14;96880.53;5011307;28;20494;-45
2024/03/04 07:27:19;;;;;;;44.10;23.87;;;7.70;99.90;;;9.23;68.30;96879.22;5013042;28;20065;-46
2024/03/04 07:29:47;;;;;;;52.70;25.20;;;7.70;99.90;;;9.33;68.19;96876.34;5028772;28;20051;-49
2024/03/04 07:32:25;;;;;;;46.70;24.77;;;7.80;99.90;;;9.38;68.08;96885.47;5025260;28;20491;-47
2024/03/04 07:34:53;;;;;;;46.33;24.57;;;7.90;99.90;;;9.40;68.08;96877.31;5012213;28;20058;-44
2024/03/04 07:37:20;;;;;;;47.30;25.53;;;7.90;99.90;;;9.44;67.91;96882.13;5012308;28;20487;-46
2024/03/04 07:39:48;;;;;;;48.53;24.37;;;8.00;99.90;;;9.39;68.06;96887.09;5011622;28;20047;-44
2024/03/04 07:42:16;;;;;;;51.13;26.57;;;7.90;99.90;;;9.46;68.02;96893.41;5009901;28;20502;-46
2024/03/04 07:44:44;;;;;;;48.33;26.30;;;7.90;99.90;;;9.45;68.10;96894.38;5012219;28;20479;-46
2024/03/04 07:47:12;;;;;;;43.90;24.10;;;7.90;99.90;;;9.55;67.85;96886.19;5011089;28;20043;-45
2024/03/04 07:49:40;;;;;;;49.77;25.53;;;8.00;99.90;;;9.52;67.92;96883.06;5025522;28;22573;-48
2024/03/04 07:52:09;;;;;;;50.50;26.50;;;7.90;99.90;;;9.53;68.02;96893.53;5029262;28;20037;-45
2024/03/04 07:54:37;;;;;;;50.50;25.13;;;8.00;99.90;;;9.46;68.46;96896.06;5017625;28;20063;-46
2024/03/04 07:57:04;;;;;;;50.90;24.97;;;7.90;99.90;;;9.52;68.10;96897.19;5012270;28;20062;-45
2024/03/04 07:59:44;;;;;;;53.80;26.83;;;7.90;99.90;;;9.60;67.99;96904.31;5027474;28;20518;-47
2024/03/04 08:02:11;;;;;;;54.77;26.83;;;8.00;99.90;;;9.61;68.02;96905.94;5029109;28;20051;-46
2024/03/04 08:04:45;;;;;;;55.40;27.03;;;8.00;99.90;;;9.61;67.84;96909.41;5016568;28;20423;-46
2024/03/04 08:07:13;;;;;;;54.03;26.07;;;8.00;99.90;;;9.53;67.99;96906.00;5010427;28;20039;-46
2024/03/04 08:09:41;;;;;;;49.17;25.87;;;8.00;99.90;;;9.62;68.04;96915.59;5021975;28;20055;-46
2024/03/04 08:12:08;;;;;;;48.43;27.20;;;7.90;99.90;;;9.63;67.80;96912.75;5029066;28;20063;-47
2024/03/04 08:14:36;;;;;;;53.93;27.73;;;8.00;99.90;;;9.66;67.82;96917.72;5017941;28;20037;-46
2024/03/04 08:17:04;;;;;;;54.20;27.67;;;8.00;99.90;;;9.73;67.69;96925.00;5012222;28;20479;-47
2024/03/04 08:19:32;;;;;;;56.00;26.53;;;8.10;99.90;;;9.74;67.73;96926.66;5017734;28;20038;-45
2024/03/04 08:22:00;;;;;;;60.10;28.17;;;8.20;99.90;;;9.77;67.97;96923.63;5028745;28;20040;-46
2024/03/04 08:24:27;;;;;;;57.83;27.80;;;8.20;99.90;;;9.71;67.80;96927.00;5026165;28;20044;-45
2024/03/04 08:26:55;;;;;;;55.67;26.13;;;8.10;99.90;;;9.64;67.92;96929.53;5011652;28;20043;-46
2024/03/04 08:29:23;;;;;;;53.00;26.67;;;8.00;99.90;;;9.52;68.28;96934.41;5011124;28;20058;-45
2024/03/04 08:31:50;;;;;;;52.90;26.90;;;8.00;99.90;;;9.54;68.26;96942.16;5003472;28;20043;-46
2024/03/04 08:34:19;;;;;;;54.27;27.17;;;8.00;99.90;;;9.52;68.46;96936.19;5011321;28;20057;-47
2024/03/04 08:36:47;;;;;;;58.07;26.60;;;7.90;99.90;;;9.51;68.76;96939.88;5026534;28;20040;-48
2024/03/04 08:39:16;;;;;;;59.93;27.83;;;7.90;99.90;;;9.57;68.22;96945.31;5023586;28;20040;-45
2024/03/04 08:41:48;;;;;;;57.50;28.60;;;8.00;99.90;;;9.56;68.37;96941.03;5015534;28;20044;-48
2024/03/04 08:44:16;;;;;;;55.83;26.73;;;8.00;99.90;;;9.65;68.54;96953.28;5011526;28;20047;-46
2024/03/04 08:46:44;;;;;;;54.93;25.90;;;8.00;99.90;;;9.68;68.24;96949.44;5024047;28;20057;-49
2024/03/04 08:49:15;;;;;;;53.20;26.57;;;8.00;99.90;;;9.64;68.49;96951.63;5028407;28;20047;-48
2024/03/04 08:51:43;;;;;;;52.87;25.57;;;8.00;99.90;;;9.66;68.05;96960.25;5017240;28;20040;-47
2024/03/04 08:54:11;;;;;;;57.10;29.67;;;8.00;99.90;;;9.74;68.04;96958.56;5026538;28;20507;-47
2024/03/04 08:56:39;;;;;;;54.37;26.20;;;8.10;99.90;;;9.76;68.09;96968.00;5006914;28;20043;-46
2024/03/04 08:59:10;;;;;;;52.10;27.03;;;8.10;99.90;;;9.75;67.81;96966.38;4965204;28;20046;-47
2024/03/04 09:01:38;;;;;;;55.10;27.30;;;8.10;99.90;;;9.81;67.71;96963.00;4980337;28;20065;-48
2024/03/04 09:04:06;;;;;;;59.83;26.87;;;8.20;99.90;;;9.89;67.77;96979.91;4971711;28;20056;-47
2024/03/04 09:06:33;;;;;;;53.33;26.27;;;8.30;99.90;;;9.87;67.77;96966.81;4971572;28;20491;-46
2024/03/04 09:09:01;;;;;;;64.50;31.43;;;8.30;99.90;;;9.78;68.00;96973.97;4962435;28;20066;-46
2024/03/04 09:11:28;;;;;;;56.57;26.67;;;8.20;99.90;;;9.87;67.87;96974.78;4968476;28;20046;-47
2024/03/04 09:13:57;;;;;;;59.63;26.60;;;8.30;99.90;;;9.95;67.40;96977.41;5007309;28;20039;-45
2024/03/04 09:16:24;;;;;;;51.77;26.63;;;8.30;99.90;;;9.98;67.31;96989.50;5009362;28;20065;-47
2024/03/04 09:18:52;;;;;;;51.50;28.27;;;8.30;99.90;;;9.95;67.65;96984.56;5024795;28;20040;-46
2024/03/04 09:21:24;;;;;;;50.83;28.40;;;8.30;99.90;;;9.98;67.48;96979.72;5027843;28;20048;-46
2024/03/04 09:23:53;;;;;;;53.40;28.83;;;8.40;99.90;;;10.05;67.23;96975.34;5014375;28;20055;-46
2024/03/04 09:26:20;;;;;;;52.07;26.90;;;8.40;99.90;;;10.04;67.35;96980.84;5010948;28;20413;-48
2024/03/04 09:28:52;;;;;;;57.30;29.70;;;8.40;99.90;;;9.95;67.15;96987.22;5021174;28;20058;-48
2024/03/04 09:31:19;;;;;;;57.70;29.77;;;8.40;99.90;;;10.05;67.07;96988.66;5028228;28;20036;-46
2024/03/04 09:33:47;;;;;;;53.30;28.00;;;8.40;99.90;;;10.04;67.34;96991.47;5018224;28;20041;-48
2024/03/04 09:36:15;;;;;;;49.33;26.03;;;8.40;99.90;;;10.10;67.04;96995.28;5010715;28;20035;-47
2024/03/04 09:38:43;;;;;;;49.43;24.87;;;8.50;99.90;;;10.16;67.08;96992.75;5015194;28;20047;-47
2024/03/04 09:41:11;;;;;;;53.40;26.63;;;8.60;99.90;;;10.11;66.84;96987.13;5028072;28;20048;-46
2024/03/04 09:43:39;;;;;;;49.57;25.93;;;8.50;99.90;;;10.20;66.79;96987.94;5024811;28;20099;-49
2024/03/04 09:46:08;;;;;;;51.40;27.47;;;8.60;99.90;;;10.31;66.91;96989.38;5010632;28;20043;-48
2024/03/04 09:48:39;;;;;;;45.90;26.23;;;8.60;99.90;;;10.32;66.60;96991.03;5009970;28;20494;-47
2024/03/04 09:51:08;;;;;;;52.57;27.37;;;8.70;99.90;;;10.27;66.46;96996.03;5026657;28;20495;-47
2024/03/04 09:53:38;;;;;;;52.73;26.93;;;8.60;99.90;;;10.21;66.47;96990.38;5027864;28;20040;-47
2024/03/04 09:56:07;;;;;;;56.60;27.83;;;8.60;99.90;;;10.23;66.78;96996.34;5013915;28;20470;-46
2024/03/04 09:58:36;;;;;;;53.90;27.17;;;8.60;99.90;;;10.19;66.46;97000.38;5012513;28;20043;-47
2024/03/04 10:01:05;;;;;;;57.97;28.13;;;8.60;99.90;;;10.16;66.77;96999.91;5012524;28;20038;-49
2024/03/04 10:03:35;;;;;;;50.10;25.60;;;8.50;99.90;;;10.18;66.63;97008.56;5011888;28;20185;-46
2024/03/04 10:06:05;;;;;;;51.10;26.27;;;8.50;99.90;;;10.29;66.87;97009.97;5003611;28;20054;-50
2024/03/04 10:08:33;;;;;;;50.43;27.27;;;8.70;99.90;;;10.09;66.92;97010.41;5012337;28;20516;-47
2024/03/04 10:11:00;;;;;;;47.10;25.40;;;8.60;99.90;;;9.99;67.10;97005.31;5030256;28;20056;-47
2024/03/04 10:13:29;;;;;;;51.67;25.83;;;8.40;99.90;;;9.99;67.03;97010.63;5031168;28;20037;-47
2024/03/04 10:15:57;;;;;;;52.93;28.57;;;8.40;99.90;;;10.00;67.12;97006.13;5014540;28;20048;-46
2024/03/04 10:18:25;;;;;;;50.50;25.77;;;8.40;99.90;;;10.07;67.39;97006.28;4969785;28;20043;-47
2024/03/04 10:20:55;;;;;;;53.63;25.73;;;8.50;99.90;;;9.95;67.78;97009.31;5007008;28;20048;-46
2024/03/04 10:23:23;;;;;;;50.10;28.10;;;8.40;99.90;;;10.11;67.27;97008.41;5013465;28;20054;-47
2024/03/04 10:26:08;;;;;;;53.37;27.97;;;8.50;99.90;;;9.88;67.79;97005.69;5021931;28;20051;-48